createdAt,value
2019-02-07T00:00:26.723Z,60.39
2019-02-07T00:01:34.019Z,60.38
2019-02-07T00:02:40.059Z,60.49
2019-02-07T00:03:47.038Z,60.47
2019-02-07T00:04:53.060Z,60.34
2019-02-07T00:06:00.129Z,60.35
2019-02-07T00:07:06.590Z,60.36
2019-02-07T00:08:13.159Z,60.47
2019-02-07T00:09:20.197Z,60.40
2019-02-07T00:10:26.775Z,60.41
2019-02-07T00:11:33.799Z,60.42
2019-02-07T00:12:40.323Z,60.38
2019-02-07T00:13:46.230Z,60.41
2019-02-07T00:14:52.015Z,60.55
2019-02-07T00:15:58.407Z,60.46
2019-02-07T00:17:04.200Z,60.49
2019-02-07T00:18:11.237Z,60.43
2019-02-07T00:19:18.378Z,60.43
2019-02-07T00:20:25.618Z,60.52
2019-02-07T00:21:31.784Z,60.65
2019-02-07T00:22:39.317Z,60.69
2019-02-07T00:23:45.206Z,60.69
2019-02-07T00:24:51.567Z,60.64
2019-02-07T00:25:58.086Z,60.66
2019-02-07T00:27:04.283Z,60.81
2019-02-07T00:28:10.714Z,60.91
2019-02-07T00:29:17.624Z,61.12
2019-02-07T00:30:24.423Z,61.22
2019-02-07T00:31:31.274Z,61.22
2019-02-07T00:32:39.015Z,61.36
2019-02-07T00:33:44.982Z,61.33
2019-02-07T00:34:52.174Z,61.30
2019-02-07T00:35:58.655Z,61.27
2019-02-07T00:37:04.709Z,61.26
2019-02-07T00:38:14.985Z,61.10
2019-02-07T00:39:21.614Z,61.11
2019-02-07T00:40:28.187Z,61.02
2019-02-07T00:41:34.396Z,60.92
2019-02-07T00:42:42.172Z,60.95
2019-02-07T00:43:48.465Z,60.81
2019-02-07T00:44:55.267Z,60.83
2019-02-07T00:46:03.215Z,60.83
2019-02-07T00:47:09.754Z,60.85
2019-02-07T00:48:17.718Z,60.76
2019-02-07T00:49:24.366Z,60.88
2019-02-07T00:50:31.335Z,60.97
2019-02-07T00:51:38.304Z,61.22
2019-02-07T00:52:44.907Z,61.45
2019-02-07T00:53:51.855Z,61.56
2019-02-07T00:54:57.688Z,61.59
2019-02-07T00:56:03.939Z,61.54
2019-02-07T00:57:10.498Z,61.59
2019-02-07T00:58:16.358Z,61.66
2019-02-07T00:59:23.029Z,61.59
2019-02-07T01:00:31.830Z,61.47
2019-02-07T01:01:37.697Z,61.41
2019-02-07T01:02:43.919Z,61.48
2019-02-07T01:03:50.087Z,61.43
2019-02-07T01:04:56.025Z,61.53
2019-02-07T01:06:02.917Z,61.39
2019-02-07T01:07:10.178Z,61.33
2019-02-07T01:08:17.927Z,61.32
2019-02-07T01:09:24.559Z,61.34
2019-02-07T01:10:32.715Z,61.46
2019-02-07T01:11:38.258Z,61.46
2019-02-07T01:12:45.178Z,61.42
2019-02-07T01:13:52.154Z,61.40
2019-02-07T01:15:02.159Z,61.39
2019-02-07T01:16:06.875Z,61.58
2019-02-07T01:17:13.875Z,61.63
2019-02-07T01:18:20.070Z,61.51
2019-02-07T01:19:27.933Z,61.51
2019-02-07T01:20:35.115Z,61.55
2019-02-07T01:21:40.895Z,61.53
2019-02-07T01:22:46.783Z,61.58
2019-02-07T01:23:55.341Z,61.60
2019-02-07T01:25:01.691Z,61.59
2019-02-07T01:26:08.449Z,61.66
2019-02-07T01:27:15.538Z,61.66
2019-02-07T01:28:23.066Z,61.75
2019-02-07T01:29:29.389Z,61.74
2019-02-07T01:30:37.168Z,61.93
2019-02-07T01:31:43.811Z,62.22
2019-02-07T01:32:50.611Z,62.31
2019-02-07T01:33:56.961Z,62.42
2019-02-07T01:35:02.682Z,62.41
2019-02-07T01:36:10.029Z,62.35
2019-02-07T01:37:15.806Z,62.27
2019-02-07T01:38:22.158Z,62.12
2019-02-07T01:39:29.159Z,62.05
2019-02-07T01:40:35.070Z,61.96
2019-02-07T01:41:41.929Z,61.88
2019-02-07T01:42:48.158Z,61.83
2019-02-07T01:43:54.531Z,61.83
2019-02-07T01:45:01.173Z,62.05
2019-02-07T01:46:08.868Z,62.03
2019-02-07T01:47:14.644Z,62.16
2019-02-07T01:48:21.983Z,62.28
2019-02-07T01:49:27.913Z,62.26
2019-02-07T01:50:34.120Z,62.25
2019-02-07T01:51:40.073Z,62.23
2019-02-07T01:52:46.930Z,62.38
2019-02-07T01:53:52.850Z,62.31
2019-02-07T01:55:00.630Z,62.38
2019-02-07T01:56:08.542Z,62.46
2019-02-07T01:57:14.374Z,62.43
2019-02-07T01:58:21.564Z,62.40
2019-02-07T01:59:29.435Z,62.21
2019-02-07T02:00:35.785Z,62.19
2019-02-07T02:01:42.103Z,62.23
2019-02-07T02:02:48.389Z,62.40
2019-02-07T02:03:54.662Z,62.39
2019-02-07T02:05:01.383Z,62.61
2019-02-07T02:06:07.571Z,62.61
2019-02-07T02:07:14.052Z,62.68
2019-02-07T02:08:20.502Z,62.62
2019-02-07T02:09:26.538Z,62.58
2019-02-07T02:10:32.983Z,62.43
2019-02-07T02:11:40.095Z,62.37
2019-02-07T02:12:46.335Z,62.46
2019-02-07T02:13:53.380Z,62.37
2019-02-07T02:14:59.809Z,62.30
2019-02-07T02:16:06.079Z,62.18
2019-02-07T02:17:11.973Z,62.21
2019-02-07T02:18:19.576Z,62.21
2019-02-07T02:19:25.999Z,62.19
2019-02-07T02:20:34.089Z,62.23
2019-02-07T02:21:41.280Z,62.21
2019-02-07T02:22:48.232Z,62.23
2019-02-07T02:23:54.266Z,62.26
2019-02-07T02:25:00.402Z,62.43
2019-02-07T02:26:06.439Z,62.33
2019-02-07T02:27:13.398Z,62.28
2019-02-07T02:28:20.982Z,62.35
2019-02-07T02:29:27.681Z,62.60
2019-02-07T02:30:36.933Z,62.73
2019-02-07T02:31:42.964Z,62.80
2019-02-07T02:32:49.790Z,62.87
2019-02-07T02:33:56.848Z,62.92
2019-02-07T02:35:02.551Z,62.86
2019-02-07T02:36:08.941Z,62.83
2019-02-07T02:37:17.170Z,62.76
2019-02-07T02:38:22.965Z,62.75
2019-02-07T02:39:29.571Z,62.75
2019-02-07T02:40:36.757Z,62.74
2019-02-07T02:41:42.921Z,62.76
2019-02-07T02:42:49.821Z,62.66
2019-02-07T02:43:57.330Z,62.74
2019-02-07T02:45:03.000Z,62.67
2019-02-07T02:46:09.931Z,62.79
2019-02-07T02:47:16.318Z,62.76
2019-02-07T02:48:23.529Z,62.94
2019-02-07T02:49:30.091Z,63.03
2019-02-07T02:50:36.191Z,63.19
2019-02-07T02:51:42.072Z,63.28
2019-02-07T02:52:49.321Z,63.42
2019-02-07T02:53:57.330Z,63.38
2019-02-07T02:55:05.292Z,63.37
2019-02-07T02:56:11.941Z,63.32
2019-02-07T02:57:18.167Z,63.33
2019-02-07T02:58:24.590Z,63.27
2019-02-07T02:59:31.251Z,63.25
2019-02-07T03:00:46.021Z,63.25
2019-02-07T03:02:08.956Z,63.23
2019-02-07T03:03:23.677Z,63.16
2019-02-07T03:04:31.215Z,63.19
2019-02-07T03:05:42.884Z,63.08
2019-02-07T03:06:54.189Z,62.99
2019-02-07T03:08:10.638Z,63.16
2019-02-07T03:09:25.082Z,63.10
2019-02-07T03:10:41.893Z,63.07
2019-02-07T03:11:56.637Z,62.94
2019-02-07T03:13:07.720Z,62.82
2019-02-07T03:14:17.978Z,62.91
2019-02-07T03:15:49.330Z,62.89
2019-02-07T03:16:52.778Z,62.86
2019-02-07T03:18:03.444Z,62.98
2019-02-07T03:19:09.411Z,62.91
2019-02-07T03:20:20.705Z,62.99
2019-02-07T03:21:35.956Z,63.07
2019-02-07T03:22:44.133Z,63.34
2019-02-07T03:23:52.041Z,63.43
2019-02-07T03:24:59.882Z,63.53
2019-02-07T03:26:23.240Z,63.57
2019-02-07T03:27:29.178Z,63.66
2019-02-07T03:28:42.876Z,63.63
2019-02-07T03:29:50.378Z,63.52
2019-02-07T03:30:57.551Z,63.47
2019-02-07T03:32:21.856Z,63.41
2019-02-07T03:33:45.753Z,63.42
2019-02-07T03:34:53.650Z,63.32
2019-02-07T03:36:11.042Z,63.31
2019-02-07T03:37:21.357Z,63.23
2019-02-07T03:38:47.113Z,63.17
2019-02-07T03:40:01.208Z,63.14
2019-02-07T03:41:28.055Z,63.21
2019-02-07T03:42:45.486Z,63.30
2019-02-07T03:44:01.860Z,63.40
2019-02-07T03:45:25.314Z,63.31
2019-02-07T03:46:44.999Z,63.35
2019-02-07T03:48:10.689Z,63.44
2019-02-07T03:49:17.964Z,63.55
2019-02-07T03:50:25.249Z,63.61
2019-02-07T03:51:34.570Z,63.72
2019-02-07T03:52:44.621Z,63.74
2019-02-07T03:53:58.247Z,63.62
2019-02-07T03:55:20.973Z,63.65
2019-02-07T03:56:43.637Z,63.56
2019-02-07T03:58:07.862Z,63.47
2019-02-07T03:59:19.522Z,63.54
2019-02-07T04:00:30.493Z,63.56
2019-02-07T04:01:45.694Z,63.48
2019-02-07T04:02:53.080Z,63.56
2019-02-07T04:04:06.589Z,63.63
2019-02-07T04:05:21.459Z,63.72
2019-02-07T04:06:29.146Z,63.85
2019-02-07T04:07:46.339Z,63.95
2019-02-07T04:08:53.632Z,63.84
2019-02-07T04:10:17.170Z,63.91
2019-02-07T04:11:33.478Z,63.90
2019-02-07T04:12:54.137Z,63.97
2019-02-07T04:14:02.039Z,64.04
2019-02-07T04:15:13.944Z,64.19
2019-02-07T04:16:21.334Z,64.23
2019-02-07T04:17:45.063Z,64.39
2019-02-07T04:18:58.714Z,64.39
2019-02-07T04:20:14.580Z,64.27
2019-02-07T04:21:32.321Z,64.22
2019-02-07T04:22:43.195Z,64.29
2019-02-07T04:23:49.757Z,64.24
2019-02-07T04:25:10.619Z,64.26
2019-02-07T04:26:31.629Z,64.23
2019-02-07T04:27:45.441Z,64.27
2019-02-07T04:29:10.550Z,64.36
2019-02-07T04:30:16.898Z,64.45
2019-02-07T04:31:24.106Z,64.58
2019-02-07T04:32:34.549Z,64.72
2019-02-07T04:33:58.023Z,64.87
2019-02-07T04:35:06.299Z,64.98
2019-02-07T04:36:17.729Z,64.99
2019-02-07T04:37:26.233Z,64.98
2019-02-07T04:38:31.594Z,64.87
2019-02-07T04:39:39.537Z,64.78
2019-02-07T04:40:47.717Z,64.79
2019-02-07T04:42:11.064Z,64.89
2019-02-07T04:43:17.751Z,64.88
2019-02-07T04:44:25.426Z,64.93
2019-02-07T04:45:36.336Z,64.97
2019-02-07T04:46:54.272Z,65.05
2019-02-07T04:48:04.640Z,65.06
2019-02-07T04:49:18.583Z,65.16
2019-02-07T04:50:33.423Z,65.18
2019-02-07T04:51:45.521Z,65.22
2019-02-07T04:53:12.440Z,65.33
2019-02-07T04:54:32.532Z,65.33
2019-02-07T04:55:58.151Z,65.34
2019-02-07T04:57:18.710Z,65.35
2019-02-07T04:58:43.596Z,65.57
2019-02-07T05:00:03.060Z,65.57
2019-02-07T05:01:26.511Z,65.82
2019-02-07T05:02:50.802Z,65.81
2019-02-07T05:04:14.552Z,65.88
2019-02-07T05:05:38.119Z,66.03
2019-02-07T05:06:45.383Z,65.95
2019-02-07T05:07:52.846Z,65.91
2019-02-07T05:09:16.733Z,65.90
2019-02-07T05:10:31.596Z,65.88
2019-02-07T05:11:45.878Z,65.75
2019-02-07T05:13:03.044Z,65.67
2019-02-07T05:14:27.239Z,65.76
2019-02-07T05:15:38.163Z,65.79
2019-02-07T05:16:48.227Z,65.82
2019-02-07T05:17:56.278Z,65.79
2019-02-07T05:19:19.983Z,65.72
2019-02-07T05:20:31.063Z,65.74
2019-02-07T05:21:38.594Z,65.73
2019-02-07T05:22:47.119Z,65.75
2019-02-07T05:24:07.417Z,65.79
2019-02-07T05:25:31.786Z,65.87
2019-02-07T05:26:43.580Z,65.93
2019-02-07T05:28:08.668Z,66.07
2019-02-07T05:29:17.089Z,66.18
2019-02-07T05:30:27.387Z,66.16
2019-02-07T05:31:34.922Z,66.30
2019-02-07T05:32:44.608Z,66.15
2019-02-07T05:33:58.673Z,66.15
2019-02-07T05:35:25.700Z,66.03
2019-02-07T05:36:42.509Z,66.02
2019-02-07T05:38:07.501Z,65.92
2019-02-07T05:39:18.330Z,65.86
2019-02-07T05:40:26.608Z,65.89
2019-02-07T05:41:51.147Z,65.99
2019-02-07T05:43:13.790Z,66.01
2019-02-07T05:44:24.753Z,66.15
2019-02-07T05:45:33.241Z,66.15
2019-02-07T05:46:57.131Z,66.06
2019-02-07T05:48:22.450Z,66.00
2019-02-07T05:49:30.639Z,65.96
2019-02-07T05:50:38.182Z,66.00
2019-02-07T05:51:55.710Z,66.05
2019-02-07T05:53:01.370Z,66.02
2019-02-07T05:54:12.242Z,66.09
2019-02-07T05:55:23.116Z,66.00
2019-02-07T05:56:33.842Z,65.97
2019-02-07T05:57:51.250Z,66.00
2019-02-07T05:59:07.444Z,66.07
2019-02-07T06:00:34.782Z,66.09
2019-02-07T06:01:54.947Z,66.02
2019-02-07T06:03:03.411Z,66.15
2019-02-07T06:04:27.640Z,66.18
2019-02-07T06:05:35.233Z,66.07
2019-02-07T06:06:47.386Z,65.95
2019-02-07T06:08:10.559Z,66.00
2019-02-07T06:09:18.279Z,65.97
2019-02-07T06:10:42.213Z,66.00
2019-02-07T06:12:09.165Z,65.95
2019-02-07T06:13:34.055Z,65.81
2019-02-07T06:14:42.833Z,65.79
2019-02-07T06:15:57.121Z,65.86
2019-02-07T06:17:17.955Z,65.72
2019-02-07T06:18:45.969Z,65.77
2019-02-07T06:20:09.712Z,65.99
2019-02-07T06:21:26.515Z,65.96
2019-02-07T06:22:43.987Z,65.92
2019-02-07T06:23:52.350Z,65.85
2019-02-07T06:25:08.541Z,65.78
2019-02-07T06:26:19.770Z,65.83
2019-02-07T06:27:27.588Z,65.81
2019-02-07T06:28:35.372Z,65.77
2019-02-07T06:29:46.140Z,65.90
2019-02-07T06:30:54.155Z,65.76
2019-02-07T06:32:01.806Z,65.72
2019-02-07T06:33:25.688Z,65.62
2019-02-07T06:34:37.257Z,65.57
2019-02-07T06:35:48.116Z,65.68
2019-02-07T06:36:56.390Z,65.62
2019-02-07T06:38:04.010Z,65.63
2019-02-07T06:39:31.018Z,65.57
2019-02-07T06:40:51.935Z,65.56
2019-02-07T06:42:09.580Z,65.56
2019-02-07T06:43:23.593Z,65.58
2019-02-07T06:44:38.354Z,65.58
2019-02-07T06:45:49.094Z,65.50
2019-02-07T06:46:57.917Z,65.45
2019-02-07T06:48:08.275Z,65.57
2019-02-07T06:49:22.505Z,65.50
2019-02-07T06:50:35.827Z,65.41
2019-02-07T06:51:50.786Z,65.40
2019-02-07T06:52:58.991Z,65.35
2019-02-07T06:54:26.724Z,65.43
2019-02-07T06:55:39.877Z,65.39
2019-02-07T06:57:17.029Z,65.25
2019-02-07T06:58:26.657Z,65.21
2019-02-07T06:59:36.878Z,65.14
2019-02-07T07:01:01.757Z,65.13
2019-02-07T07:02:23.953Z,65.12
2019-02-07T07:03:39.653Z,65.10
2019-02-07T07:04:52.287Z,65.01
2019-02-07T07:06:11.756Z,65.07
2019-02-07T07:07:36.474Z,65.09
2019-02-07T07:08:56.346Z,65.08
2019-02-07T07:10:28.934Z,64.94
2019-02-07T07:11:41.006Z,64.92
2019-02-07T07:12:51.654Z,64.98
2019-02-07T07:13:58.938Z,64.89
2019-02-07T07:15:31.093Z,64.86
2019-02-07T07:16:43.195Z,64.84
2019-02-07T07:17:52.915Z,64.71
2019-02-07T07:19:03.901Z,64.81
2019-02-07T07:20:18.214Z,64.84
2019-02-07T07:21:34.744Z,64.79
2019-02-07T07:22:45.993Z,64.78
2019-02-07T07:23:58.415Z,64.89
2019-02-07T07:25:28.302Z,64.79
2019-02-07T07:26:34.954Z,64.74
2019-02-07T07:28:00.855Z,64.67
2019-02-07T07:29:09.474Z,64.59
2019-02-07T07:30:34.036Z,64.60
2019-02-07T07:32:01.494Z,64.58
2019-02-07T07:33:25.548Z,64.57
2019-02-07T07:34:35.424Z,64.58
2019-02-07T07:35:44.446Z,64.56
2019-02-07T07:36:52.315Z,64.45
2019-02-07T07:38:00.309Z,64.35
2019-02-07T07:39:25.796Z,64.22
2019-02-07T07:40:51.530Z,64.33
2019-02-07T07:42:12.435Z,64.31
2019-02-07T07:43:20.334Z,64.24
2019-02-07T07:44:43.874Z,64.10
2019-02-07T07:46:15.094Z,64.10
2019-02-07T07:48:01.230Z,64.20
2019-02-07T07:49:19.838Z,64.07
2019-02-07T07:50:37.275Z,64.13
2019-02-07T07:51:43.714Z,64.10
2019-02-07T07:52:57.556Z,63.96
2019-02-07T07:54:12.474Z,63.90
2019-02-07T07:55:25.651Z,63.82
2019-02-07T07:56:52.237Z,63.70
2019-02-07T07:58:03.394Z,63.69
2019-02-07T07:59:15.401Z,63.61
2019-02-07T08:00:34.056Z,63.53
2019-02-07T08:01:39.984Z,63.51
2019-02-07T08:02:54.834Z,63.54
2019-02-07T08:04:07.658Z,63.54
2019-02-07T08:05:22.591Z,63.49
2019-02-07T08:06:36.534Z,63.49
2019-02-07T08:08:00.931Z,63.43
2019-02-07T08:09:15.774Z,63.41
2019-02-07T08:10:27.553Z,63.22
2019-02-07T08:11:37.754Z,63.15
2019-02-07T08:12:52.969Z,63.10
2019-02-07T08:14:08.016Z,63.06
2019-02-07T08:15:29.134Z,62.99
2019-02-07T08:16:38.343Z,62.83
2019-02-07T08:17:52.689Z,62.76
2019-02-07T08:19:06.742Z,62.67
2019-02-07T08:20:30.593Z,62.67
2019-02-07T08:21:56.903Z,62.68
2019-02-07T08:23:04.147Z,62.75
2019-02-07T08:24:27.354Z,62.72
2019-02-07T08:25:42.534Z,62.62
2019-02-07T08:26:50.475Z,62.43
2019-02-07T08:27:59.717Z,62.36
2019-02-07T08:29:21.531Z,62.37
2019-02-07T08:30:36.420Z,62.40
2019-02-07T08:31:46.955Z,62.21
2019-02-07T08:32:59.996Z,62.12
2019-02-07T08:34:26.454Z,62.07
2019-02-07T08:35:33.925Z,62.08
2019-02-07T08:36:50.019Z,61.98
2019-02-07T08:37:58.278Z,61.86
2019-02-07T08:39:11.135Z,61.78
2019-02-07T08:40:28.860Z,61.72
2019-02-07T08:41:52.855Z,61.77
2019-02-07T08:42:58.475Z,61.55
2019-02-07T08:44:03.962Z,61.44
2019-02-07T08:45:13.373Z,61.37
2019-02-07T08:46:29.544Z,61.42
2019-02-07T08:47:58.571Z,61.48
2019-02-07T08:49:07.449Z,61.28
2019-02-07T08:50:25.674Z,61.26
2019-02-07T08:51:36.141Z,61.18
2019-02-07T08:52:54.016Z,61.20
2019-02-07T08:54:00.802Z,61.23
2019-02-07T08:55:08.502Z,61.14
2019-02-07T08:56:32.556Z,61.15
2019-02-07T08:57:40.699Z,61.10
2019-02-07T08:58:46.514Z,61.03
2019-02-07T09:00:10.174Z,60.87
2019-02-07T09:01:38.055Z,60.72
2019-02-07T09:03:03.333Z,60.59
2019-02-07T09:04:31.847Z,60.57
2019-02-07T09:05:53.450Z,60.43
2019-02-07T09:07:17.553Z,60.26
2019-02-07T09:08:28.738Z,60.12
2019-02-07T09:09:41.434Z,60.23
2019-02-07T09:11:03.245Z,60.15
2019-02-07T09:12:16.204Z,60.05
2019-02-07T09:13:39.754Z,59.95
2019-02-07T09:14:53.168Z,59.85
2019-02-07T09:16:15.473Z,59.82
2019-02-07T09:17:20.916Z,59.78
2019-02-07T09:18:38.330Z,59.70
2019-02-07T09:19:51.896Z,59.63
2019-02-07T09:21:14.284Z,59.54
2019-02-07T09:22:23.810Z,59.53
2019-02-07T09:23:35.926Z,59.43
2019-02-07T09:24:59.694Z,59.33
2019-02-07T09:26:16.247Z,59.10
2019-02-07T09:27:24.741Z,59.13
2019-02-07T09:28:40.734Z,59.04
2019-02-07T09:29:51.415Z,59.04
2019-02-07T09:31:04.767Z,58.96
2019-02-07T09:32:24.493Z,58.91
2019-02-07T09:33:44.895Z,58.88
2019-02-07T09:34:58.015Z,58.73
2019-02-07T09:36:24.155Z,58.78
2019-02-07T09:37:30.738Z,58.72
2019-02-07T09:38:41.034Z,58.63
2019-02-07T09:40:04.599Z,58.63
2019-02-07T09:41:21.946Z,58.68
2019-02-07T09:42:42.712Z,58.64
2019-02-07T09:43:53.874Z,58.50
2019-02-07T09:45:05.162Z,58.36
2019-02-07T09:46:25.914Z,58.17
2019-02-07T09:47:35.728Z,58.15
2019-02-07T09:48:48.694Z,58.04
2019-02-07T09:50:08.234Z,58.00
2019-02-07T09:51:23.416Z,57.92
2019-02-07T09:52:36.835Z,57.74
2019-02-07T09:54:02.436Z,57.47
2019-02-07T09:55:13.307Z,57.43
2019-02-07T09:56:22.114Z,57.35
2019-02-07T09:57:30.918Z,57.27
2019-02-07T09:58:43.489Z,57.22
2019-02-07T10:00:06.695Z,57.08
2019-02-07T10:01:20.187Z,56.91
2019-02-07T10:02:38.107Z,56.55
2019-02-07T10:03:52.535Z,56.25
2019-02-07T10:05:09.364Z,56.12
2019-02-07T10:06:17.202Z,56.11
2019-02-07T10:07:42.852Z,55.80
2019-02-07T10:08:53.414Z,55.58
2019-02-07T10:10:13.914Z,55.39
2019-02-07T10:11:36.254Z,55.27
2019-02-07T10:12:57.188Z,54.89
2019-02-07T10:14:13.814Z,54.42
2019-02-07T10:15:39.238Z,54.25
2019-02-07T10:17:01.534Z,53.95
2019-02-07T10:18:32.787Z,53.77
2019-02-07T10:19:36.268Z,53.54
2019-02-07T10:20:47.612Z,53.39
2019-02-07T10:22:10.305Z,53.41
2019-02-07T10:23:23.610Z,52.92
2019-02-07T10:24:47.694Z,52.58
2019-02-07T10:26:11.657Z,52.74
2019-02-07T10:27:22.194Z,52.48
2019-02-07T10:28:45.755Z,52.46
2019-02-07T10:29:54.040Z,52.59
2019-02-07T10:31:17.703Z,52.45
2019-02-07T10:32:27.749Z,52.15
2019-02-07T10:33:33.307Z,51.91
2019-02-07T10:34:44.445Z,51.75
2019-02-07T10:36:01.074Z,51.59
2019-02-07T10:37:09.894Z,51.52
2019-02-07T10:38:17.888Z,51.21
2019-02-07T10:39:35.902Z,51.10
2019-02-07T10:40:52.673Z,51.09
2019-02-07T10:42:16.974Z,51.06
2019-02-07T10:43:40.094Z,50.97
2019-02-07T10:44:49.014Z,50.94
2019-02-07T10:46:08.293Z,51.29
2019-02-07T10:47:33.494Z,51.16
2019-02-07T10:48:44.652Z,51.11
2019-02-07T10:49:59.445Z,51.07
2019-02-07T10:51:06.562Z,50.99
2019-02-07T10:52:20.105Z,50.90
2019-02-07T10:53:33.730Z,51.16
2019-02-07T10:54:53.675Z,51.09
2019-02-07T10:56:17.862Z,51.18
2019-02-07T10:57:31.633Z,51.22
2019-02-07T10:58:37.054Z,51.21
2019-02-07T10:59:46.101Z,51.16
2019-02-07T11:01:00.515Z,51.15
2019-02-07T11:02:15.375Z,51.37
2019-02-07T11:03:31.333Z,51.39
2019-02-07T11:04:59.884Z,51.34
2019-02-07T11:06:27.259Z,51.34
2019-02-07T11:07:36.234Z,51.21
2019-02-07T11:08:52.290Z,51.29
2019-02-07T11:10:09.273Z,51.19
2019-02-07T11:11:18.814Z,51.02
2019-02-07T11:12:36.415Z,51.00
2019-02-07T11:13:47.791Z,50.88
2019-02-07T11:15:01.415Z,50.81
2019-02-07T11:16:18.715Z,50.81
2019-02-07T11:17:31.427Z,50.61
2019-02-07T11:18:55.723Z,50.62
2019-02-07T11:20:08.237Z,50.49
2019-02-07T11:21:16.794Z,50.47
2019-02-07T11:22:24.242Z,50.39
2019-02-07T11:23:34.327Z,50.31
2019-02-07T11:24:44.154Z,50.23
2019-02-07T11:26:03.634Z,50.26
2019-02-07T11:27:11.673Z,50.24
2019-02-07T11:28:19.465Z,50.19
2019-02-07T11:29:28.634Z,50.21
2019-02-07T11:30:39.902Z,50.28
2019-02-07T11:32:03.575Z,50.28
2019-02-07T11:33:17.363Z,50.20
2019-02-07T11:34:30.842Z,50.23
2019-02-07T11:35:57.324Z,50.35
2019-02-07T11:37:11.467Z,50.29
2019-02-07T11:38:20.173Z,50.29
2019-02-07T11:39:29.781Z,50.42
2019-02-07T11:40:41.290Z,50.29
2019-02-07T11:41:55.434Z,50.27
2019-02-07T11:43:06.717Z,50.15
2019-02-07T11:44:15.206Z,50.10
2019-02-07T11:45:22.694Z,50.21
2019-02-07T11:46:48.778Z,50.29
2019-02-07T11:47:59.215Z,50.43
2019-02-07T11:49:19.014Z,50.48
2019-02-07T11:50:32.854Z,50.45
2019-02-07T11:51:43.814Z,50.44
2019-02-07T11:53:09.547Z,50.32
2019-02-07T11:54:24.536Z,50.36
2019-02-07T11:55:32.334Z,50.41
2019-02-07T11:56:55.963Z,50.34
2019-02-07T11:58:10.315Z,50.38
2019-02-07T11:59:35.914Z,50.40
2019-02-07T12:01:02.934Z,50.28
2019-02-07T12:02:19.927Z,50.24
2019-02-07T12:03:33.873Z,50.25
2019-02-07T12:04:42.559Z,50.13
2019-02-07T12:05:51.114Z,50.17
2019-02-07T12:07:01.227Z,50.12
2019-02-07T12:08:26.237Z,50.12
2019-02-07T12:09:34.754Z,50.09
2019-02-07T12:10:49.174Z,50.24
2019-02-07T12:12:05.862Z,50.05
2019-02-07T12:13:17.274Z,49.96
2019-02-07T12:14:36.415Z,49.97
2019-02-07T12:15:46.673Z,49.95
2019-02-07T12:16:57.334Z,49.95
2019-02-07T12:18:21.277Z,49.84
2019-02-07T12:19:34.574Z,50.02
2019-02-07T12:20:55.293Z,49.85
2019-02-07T12:22:18.956Z,49.72
2019-02-07T12:23:30.442Z,49.59
2019-02-07T12:24:47.515Z,49.52
2019-02-07T12:25:56.034Z,49.37
2019-02-07T12:27:14.277Z,49.23
2019-02-07T12:28:31.995Z,49.21
2019-02-07T12:29:46.767Z,49.16
2019-02-07T12:31:11.194Z,49.03
2019-02-07T12:32:19.666Z,49.05
2019-02-07T12:33:43.913Z,49.00
2019-02-07T12:34:51.874Z,49.04
2019-02-07T12:36:00.713Z,48.95
2019-02-07T12:37:17.746Z,48.79
2019-02-07T12:38:40.494Z,48.70
2019-02-07T12:40:04.210Z,48.64
2019-02-07T12:41:15.887Z,48.69
2019-02-07T12:42:28.894Z,48.54
2019-02-07T12:43:39.084Z,48.62
2019-02-07T12:45:01.268Z,48.56
2019-02-07T12:46:09.832Z,48.47
2019-02-07T12:47:19.996Z,48.57
2019-02-07T12:48:36.417Z,48.64
2019-02-07T12:50:00.031Z,48.55
2019-02-07T12:51:20.675Z,48.39
2019-02-07T12:52:44.235Z,48.41
2019-02-07T12:54:02.540Z,48.52
2019-02-07T12:55:11.995Z,48.37
2019-02-07T12:56:22.855Z,48.49
2019-02-07T12:57:48.775Z,48.70
2019-02-07T12:58:57.376Z,48.72
2019-02-07T13:00:24.053Z,48.76
2019-02-07T13:01:48.715Z,48.77
2019-02-07T13:03:01.676Z,48.84
2019-02-07T13:04:08.649Z,48.94
2019-02-07T13:05:35.615Z,48.82
2019-02-07T13:06:57.110Z,48.85
2019-02-07T13:08:03.876Z,48.79
2019-02-07T13:09:10.736Z,48.91
2019-02-07T13:10:27.417Z,48.95
2019-02-07T13:11:37.723Z,49.02
2019-02-07T13:13:00.851Z,49.15
2019-02-07T13:14:08.306Z,49.21
2019-02-07T13:15:16.665Z,49.33
2019-02-07T13:16:40.195Z,49.49
2019-02-07T13:17:52.077Z,49.53
2019-02-07T13:19:12.261Z,49.74
2019-02-07T13:20:33.172Z,49.87
2019-02-07T13:21:40.435Z,49.96
2019-02-07T13:22:45.970Z,50.08
2019-02-07T13:23:59.601Z,50.20
2019-02-07T13:25:13.122Z,50.39
2019-02-07T13:26:19.451Z,50.40
2019-02-07T13:27:45.179Z,50.52
2019-02-07T13:28:58.819Z,50.69
2019-02-07T13:30:30.936Z,50.74
2019-02-07T13:31:40.794Z,50.72
2019-02-07T13:33:04.021Z,50.91
2019-02-07T13:34:18.109Z,50.79
2019-02-07T13:35:42.075Z,50.80
2019-02-07T13:36:48.108Z,50.77
2019-02-07T13:38:11.992Z,50.87
2019-02-07T13:39:33.395Z,50.80
2019-02-07T13:40:54.029Z,50.82
2019-02-07T13:42:08.515Z,50.84
2019-02-07T13:43:22.652Z,50.85
2019-02-07T13:44:29.928Z,50.91
2019-02-07T13:45:44.236Z,50.97
2019-02-07T13:47:03.716Z,51.00
2019-02-07T13:48:14.995Z,51.07
2019-02-07T13:49:20.376Z,51.04
2019-02-07T13:50:27.696Z,51.15
2019-02-07T13:51:33.457Z,51.28
2019-02-07T13:52:47.068Z,51.31
2019-02-07T13:53:59.546Z,51.40
2019-02-07T13:55:24.775Z,51.49
2019-02-07T13:56:33.117Z,51.36
2019-02-07T13:57:40.777Z,51.46
2019-02-07T13:59:04.954Z,51.45
2019-02-07T14:00:20.257Z,51.41
2019-02-07T14:01:31.469Z,51.37
2019-02-07T14:02:55.436Z,51.36
2019-02-07T14:04:05.998Z,51.26
2019-02-07T14:05:13.870Z,51.24
2019-02-07T14:06:27.588Z,51.35
2019-02-07T14:07:51.652Z,51.33
2019-02-07T14:08:59.176Z,51.26
2019-02-07T14:10:19.989Z,51.18
2019-02-07T14:11:27.715Z,51.18
2019-02-07T14:12:35.150Z,51.29
2019-02-07T14:13:58.948Z,51.36
2019-02-07T14:15:10.155Z,51.49
2019-02-07T14:16:33.608Z,51.55
2019-02-07T14:17:41.909Z,51.60
2019-02-07T14:18:47.428Z,51.81
2019-02-07T14:20:04.136Z,51.92
2019-02-07T14:21:14.356Z,52.10
2019-02-07T14:22:33.768Z,52.16
2019-02-07T14:23:51.668Z,52.26
2019-02-07T14:25:02.136Z,52.55
2019-02-07T14:26:13.136Z,52.81
2019-02-07T14:27:25.628Z,53.20
2019-02-07T14:28:39.849Z,53.57
2019-02-07T14:29:47.356Z,53.83
2019-02-07T14:31:01.536Z,54.07
2019-02-07T14:32:09.436Z,54.25
2019-02-07T14:33:26.944Z,54.25
2019-02-07T14:34:51.835Z,54.19
2019-02-07T14:36:08.430Z,54.11
2019-02-07T14:37:18.736Z,54.06
2019-02-07T14:38:29.990Z,53.96
2019-02-07T14:39:37.228Z,54.04
2019-02-07T14:40:50.335Z,54.10
2019-02-07T14:42:03.063Z,54.09
2019-02-07T14:43:12.046Z,54.09
2019-02-07T14:44:35.937Z,54.14
2019-02-07T14:45:46.195Z,54.26
2019-02-07T14:46:53.129Z,54.22
2019-02-07T14:47:58.818Z,54.20
2019-02-07T14:49:06.276Z,54.42
2019-02-07T14:50:14.818Z,54.41
2019-02-07T14:51:20.603Z,54.58
2019-02-07T14:52:27.472Z,54.75
2019-02-07T14:53:34.215Z,54.82
2019-02-07T14:54:45.475Z,54.98
2019-02-07T14:55:53.003Z,54.98
2019-02-07T14:56:59.155Z,55.02
2019-02-07T14:58:07.232Z,55.18
2019-02-07T14:59:13.508Z,55.13
2019-02-07T15:00:24.822Z,55.22
2019-02-07T15:01:33.269Z,55.37
2019-02-07T15:02:41.778Z,55.60
2019-02-07T15:03:50.484Z,55.73
2019-02-07T15:04:59.969Z,55.89
2019-02-07T15:06:11.864Z,56.04
2019-02-07T15:07:20.210Z,56.11
2019-02-07T15:08:29.155Z,56.00
2019-02-07T15:09:38.633Z,55.87
2019-02-07T15:10:47.723Z,55.83
2019-02-07T15:11:54.510Z,55.78
2019-02-07T15:13:06.222Z,55.72
2019-02-07T15:14:12.190Z,55.72
2019-02-07T15:15:26.870Z,55.69
2019-02-07T15:16:34.364Z,55.89
2019-02-07T15:17:39.874Z,55.80
2019-02-07T15:18:46.213Z,55.84
2019-02-07T15:19:52.026Z,55.89
2019-02-07T15:20:57.851Z,55.95
2019-02-07T15:22:03.607Z,56.04
2019-02-07T15:23:09.911Z,56.16
2019-02-07T15:24:16.643Z,56.22
2019-02-07T15:25:22.996Z,56.34
2019-02-07T15:26:29.010Z,56.51
2019-02-07T15:27:35.245Z,56.56
2019-02-07T15:28:42.050Z,56.68
2019-02-07T15:29:47.545Z,56.76
2019-02-07T15:30:54.042Z,56.85
2019-02-07T15:31:59.874Z,56.98
2019-02-07T15:33:06.158Z,57.05
2019-02-07T15:34:12.292Z,57.32
2019-02-07T15:35:22.781Z,57.43
2019-02-07T15:36:28.261Z,57.57
2019-02-07T15:37:35.206Z,57.74
2019-02-07T15:38:40.897Z,57.66
2019-02-07T15:39:46.995Z,57.66
2019-02-07T15:40:55.633Z,57.91